createdAt,value
2022-07-29T00:00:17.404Z,18.26
2022-07-29T00:05:25.421Z,18.21
2022-07-29T00:10:32.634Z,18.18
2022-07-29T00:15:40.555Z,18.12
2022-07-29T00:20:48.031Z,17.98
2022-07-29T00:25:54.864Z,17.8
2022-07-29T00:31:02.153Z,17.68
2022-07-29T00:36:08.656Z,17.62
2022-07-29T00:41:16.688Z,17.48
2022-07-29T00:46:24.844Z,17.41
2022-07-29T00:51:33.116Z,17.26
2022-07-29T00:56:40.676Z,17.18
2022-07-29T01:02:27.474Z,17.14
2022-07-29T01:07:40.417Z,17.04
2022-07-29T01:12:48.338Z,16.94
2022-07-29T01:17:55.613Z,16.86
2022-07-29T01:23:03.857Z,16.72
2022-07-29T01:28:11.830Z,16.6
2022-07-29T01:33:19.980Z,16.58
2022-07-29T01:38:27.767Z,16.56
2022-07-29T01:43:36.042Z,16.52
2022-07-29T01:48:44.118Z,16.56
2022-07-29T01:53:51.931Z,16.51
2022-07-29T01:59:00.091Z,16.42
2022-07-29T02:04:08.050Z,16.32
2022-07-29T02:09:15.779Z,16.24
2022-07-29T02:14:24.765Z,16.21
2022-07-29T02:19:33.257Z,16.14
2022-07-29T02:24:41.259Z,16.15
2022-07-29T02:29:48.866Z,16.14
2022-07-29T02:34:56.901Z,16.06
2022-07-29T02:40:04.102Z,16.06
2022-07-29T02:45:11.232Z,16.06
2022-07-29T02:50:19.071Z,16.06
2022-07-29T02:55:27.109Z,15.98
2022-07-29T03:00:35.325Z,16.06
2022-07-29T03:05:43.951Z,16.08
2022-07-29T03:10:50.760Z,16.08
2022-07-29T03:15:58.396Z,16.1
2022-07-29T03:21:05.904Z,16.06
2022-07-29T03:26:13.484Z,16.02
2022-07-29T03:31:21.421Z,16.09
2022-07-29T03:36:29.561Z,16.0
2022-07-29T03:41:37.714Z,15.92
2022-07-29T03:46:45.898Z,15.84
2022-07-29T03:51:54.314Z,15.9
2022-07-29T03:57:02.281Z,15.98
2022-07-29T04:02:11.084Z,16.06
2022-07-29T04:07:19.503Z,16.2
2022-07-29T04:12:28.154Z,16.39
2022-07-29T04:17:43.238Z,16.67
2022-07-29T04:22:51.174Z,17.36
2022-07-29T04:27:58.336Z,17.94
2022-07-29T04:33:06.174Z,18.46
2022-07-29T04:38:14.636Z,19.06
2022-07-29T04:43:23.068Z,19.46
2022-07-29T04:48:30.981Z,20.04
2022-07-29T04:53:39.237Z,20.71
2022-07-29T04:58:47.287Z,21.4
2022-07-29T05:03:54.508Z,21.84
2022-07-29T05:09:02.392Z,21.84
2022-07-29T05:14:09.578Z,21.14
2022-07-29T05:19:17.591Z,20.93
2022-07-29T05:24:27.006Z,20.86
2022-07-29T05:29:34.336Z,20.98
2022-07-29T05:34:42.496Z,21.46
2022-07-29T05:39:50.692Z,21.12
2022-07-29T05:44:58.550Z,20.94
2022-07-29T05:50:05.817Z,20.81
2022-07-29T05:55:12.951Z,20.84
2022-07-29T06:00:20.755Z,20.82
2022-07-29T06:05:28.996Z,20.76
2022-07-29T06:10:36.216Z,20.79
2022-07-29T06:15:44.827Z,20.88
2022-07-29T06:20:52.095Z,20.81
2022-07-29T06:38:52.331Z,20.35
2022-07-29T06:43:59.561Z,20.04
2022-07-29T06:49:06.816Z,19.81
2022-07-29T06:54:15.170Z,19.75
2022-07-29T06:59:22.713Z,19.72
2022-07-29T07:04:29.737Z,19.76
2022-07-29T07:09:38.684Z,19.84
2022-07-29T07:14:46.006Z,19.8
2022-07-29T07:19:53.629Z,19.8
2022-07-29T07:25:01.046Z,19.78
2022-07-29T07:30:09.132Z,19.83
2022-07-29T07:35:16.157Z,19.85
2022-07-29T07:40:24.999Z,19.94
2022-07-29T07:45:33.102Z,19.94
2022-07-29T07:50:40.890Z,19.94
2022-07-29T07:55:48.480Z,19.97
2022-07-29T08:00:55.932Z,20.09
2022-07-29T08:06:05.014Z,20.26
2022-07-29T08:11:12.239Z,20.46
2022-07-29T08:16:20.161Z,20.7
2022-07-29T08:21:28.342Z,20.99
2022-07-29T08:26:36.013Z,21.06
2022-07-29T08:31:44.354Z,20.97
2022-07-29T08:36:51.464Z,21.04
2022-07-29T08:42:00.245Z,21.1
2022-07-29T08:47:07.781Z,21.08
2022-07-29T08:52:15.606Z,21.22
2022-07-29T08:57:22.855Z,21.53
2022-07-29T09:02:30.054Z,21.8
2022-07-29T09:07:38.996Z,21.78
2022-07-29T09:12:46.444Z,21.74
2022-07-29T09:17:54.176Z,21.66
2022-07-29T09:23:02.003Z,21.62
2022-07-29T09:28:07.976Z,21.58
2022-07-29T09:33:15.865Z,21.5
2022-07-29T09:38:24.065Z,21.43
2022-07-29T09:43:32.090Z,21.46
2022-07-29T09:48:40.013Z,21.48
2022-07-29T09:53:48.799Z,21.54
2022-07-29T09:58:56.295Z,21.66
2022-07-29T10:04:09.713Z,21.7
2022-07-29T10:09:16.413Z,21.84
2022-07-29T10:14:24.249Z,22.2
2022-07-29T10:19:32.037Z,22.64
2022-07-29T10:24:39.353Z,23.2
2022-07-29T10:29:51.481Z,25.22
2022-07-29T10:34:58.770Z,26.32
2022-07-29T10:40:06.017Z,26.78
2022-07-29T10:45:14.672Z,27.34
2022-07-29T10:50:22.529Z,26.86
2022-07-29T10:55:30.682Z,26.71
2022-07-29T11:00:38.507Z,27.72
2022-07-29T11:05:46.359Z,27.66
2022-07-29T11:10:53.814Z,27.75
2022-07-29T11:16:01.958Z,28.34
2022-07-29T11:21:11.095Z,29.05
2022-07-29T11:26:17.898Z,28.58
2022-07-29T11:31:25.767Z,28.69
2022-07-29T11:36:33.478Z,28.73
2022-07-29T11:41:42.015Z,29.22
2022-07-29T11:46:49.779Z,29.36
2022-07-29T11:51:57.708Z,29.4
2022-07-29T11:57:05.939Z,28.88
2022-07-29T12:02:13.426Z,28.94
2022-07-29T12:07:20.627Z,29.11
2022-07-29T12:12:28.385Z,29.05
2022-07-29T12:17:36.529Z,28.86
2022-07-29T12:22:44.391Z,28.7
2022-07-29T12:27:52.084Z,28.47
2022-07-29T12:32:58.994Z,28.46
2022-07-29T12:44:45.587Z,28.34
2022-07-29T12:49:51.027Z,28.94
2022-07-29T12:54:59.361Z,29.42
2022-07-29T13:00:06.327Z,29.53
2022-07-29T13:05:13.947Z,29.21
2022-07-29T13:10:22.775Z,29.04
2022-07-29T13:15:29.538Z,28.65
2022-07-29T13:20:36.104Z,28.39
2022-07-29T13:25:43.296Z,28.12
2022-07-29T13:30:51.061Z,27.9
2022-07-29T13:35:58.519Z,27.8
2022-07-29T13:41:06.672Z,27.99
2022-07-29T13:46:15.109Z,28.28
2022-07-29T13:51:22.098Z,28.39
2022-07-29T13:56:30.451Z,28.62
2022-07-29T14:01:37.689Z,28.76
2022-07-29T14:06:45.944Z,28.76
2022-07-29T14:11:54.471Z,29.38
2022-07-29T14:17:02.887Z,29.46
2022-07-29T14:22:11.312Z,28.8
2022-07-29T14:27:17.967Z,28.02
2022-07-29T14:32:24.818Z,27.84
2022-07-29T14:37:31.829Z,27.98
2022-07-29T14:42:39.677Z,27.36
2022-07-29T14:47:47.710Z,26.9
2022-07-29T14:52:56.526Z,26.6
2022-07-29T14:58:03.857Z,26.42
2022-07-29T15:03:11.616Z,26.34
2022-07-29T15:08:19.989Z,26.36
2022-07-29T15:13:28.440Z,26.44
2022-07-29T15:18:35.998Z,26.62
2022-07-29T15:23:44.580Z,26.71
2022-07-29T15:28:52.092Z,26.7
2022-07-29T15:34:01.214Z,26.57
2022-07-29T15:39:08.458Z,26.76
2022-07-29T15:44:16.056Z,26.67
2022-07-29T15:49:22.853Z,26.64
2022-07-29T15:54:31.804Z,26.86
2022-07-29T15:59:39.134Z,26.76
2022-07-29T16:04:46.314Z,26.76
2022-07-29T16:09:54.731Z,26.81
2022-07-29T16:15:01.792Z,26.62
2022-07-29T16:20:09.782Z,26.46
2022-07-29T16:25:17.892Z,26.32
2022-07-29T16:30:25.095Z,26.17
2022-07-29T16:35:32.037Z,26.06
2022-07-29T16:42:10.835Z,25.89
2022-07-29T16:47:17.216Z,25.75
2022-07-29T16:52:23.712Z,25.6
2022-07-29T16:57:32.014Z,25.48
2022-07-29T17:02:38.969Z,25.38
2022-07-29T17:07:46.318Z,25.33
2022-07-29T17:12:53.380Z,25.26
2022-07-29T17:18:01.323Z,25.2
2022-07-29T17:23:08.562Z,25.1
2022-07-29T17:28:15.608Z,24.98
2022-07-29T17:33:23.741Z,24.82
2022-07-29T17:38:32.327Z,24.72
2022-07-29T17:43:40.674Z,24.56
2022-07-29T17:48:48.923Z,24.44
2022-07-29T17:53:56.855Z,24.34
2022-07-29T17:59:04.975Z,24.12
2022-07-29T18:04:12.470Z,23.82
2022-07-29T18:09:20.389Z,23.6
2022-07-29T18:14:29.127Z,23.33
2022-07-29T18:19:36.713Z,23.06
2022-07-29T18:24:44.834Z,22.78
2022-07-29T18:29:52.533Z,22.53
2022-07-29T18:34:59.556Z,22.3
2022-07-29T18:40:07.224Z,22.1
2022-07-29T18:45:16.285Z,21.9
2022-07-29T18:50:24.218Z,21.74
2022-07-29T18:55:32.607Z,21.56
2022-07-29T19:00:40.385Z,21.35
2022-07-29T19:05:49.015Z,21.22
2022-07-29T19:10:57.283Z,21.04
2022-07-29T19:16:04.978Z,20.88
2022-07-29T19:21:12.921Z,20.71
2022-07-29T19:26:21.248Z,20.61
2022-07-29T19:31:29.082Z,20.54
2022-07-29T19:36:36.094Z,20.43
2022-07-29T19:41:43.804Z,20.36
2022-07-29T19:46:51.820Z,20.26
2022-07-29T19:52:00.164Z,20.09
2022-07-29T19:57:07.150Z,20.02
2022-07-29T20:02:15.277Z,19.88
2022-07-29T20:07:22.692Z,19.81
2022-07-29T20:12:30.516Z,19.81
2022-07-29T20:17:38.326Z,19.66
2022-07-29T20:22:45.364Z,19.54
2022-07-29T20:27:53.211Z,19.5
2022-07-29T20:33:00.412Z,19.46
2022-07-29T20:38:08.261Z,19.36
2022-07-29T20:43:17.095Z,19.31
2022-07-29T20:48:24.765Z,19.34
2022-07-29T20:53:32.840Z,19.28
2022-07-29T20:58:40.227Z,19.18
2022-07-29T21:03:47.450Z,19.12
2022-07-29T21:08:55.292Z,19.08
2022-07-29T21:14:03.185Z,19.08
2022-07-29T21:19:10.343Z,19.04
2022-07-29T21:24:18.616Z,18.97
2022-07-29T21:29:25.367Z,18.9
2022-07-29T21:34:33.490Z,18.91
2022-07-29T21:39:41.936Z,18.83
2022-07-29T21:44:50.681Z,18.74
2022-07-29T21:49:58.586Z,18.65
2022-07-29T21:55:06.744Z,18.62
2022-07-29T22:00:16.128Z,18.69
2022-07-29T22:05:23.509Z,18.65
2022-07-29T22:10:31.320Z,18.59
2022-07-29T22:15:39.138Z,18.53
2022-07-29T22:20:47.250Z,18.51
2022-07-29T22:25:54.709Z,18.78
2022-07-29T22:31:02.208Z,18.96
2022-07-29T22:36:09.320Z,19.09
2022-07-29T22:41:16.418Z,19.18
2022-07-29T22:46:22.910Z,19.21
2022-07-29T22:51:30.167Z,19.28
2022-07-29T22:56:38.923Z,19.33
2022-07-29T23:01:47.483Z,19.43
2022-07-29T23:07:00.745Z,19.52
2022-07-29T23:12:07.932Z,19.58
2022-07-29T23:17:16.219Z,19.7
2022-07-29T23:22:24.249Z,19.88
2022-07-29T23:27:31.479Z,20.2
2022-07-29T23:32:39.769Z,20.38
2022-07-29T23:37:47.513Z,20.57
2022-07-29T23:42:55.594Z,20.8
2022-07-29T23:48:02.777Z,20.68
2022-07-29T23:53:09.337Z,20.2
2022-07-29T23:58:17.178Z,19.69
